Time;durP1;ratioP1;P1;durP2;ratioP2;P2;SDS_P1;SDS_P2;PMS_P1;PMS_P2;Temp;Humidity;BMP_temperature;BMP_pressure;BME280_temperature;BME280_humidity;BME280_pressure;Samples;Min_cycle;Max_cycle;Signal;HPM_P1;HPM_P2
2022/09/29 00:01:10;;;;;;;11.83;7.80;;;8.80;99.90;;;;;;5050225;28;20474;-82
2022/09/29 00:03:39;;;;;;;12.50;8.33;;;8.80;99.90;;;;;;5050563;28;20064;-82
2022/09/29 00:06:15;;;;;;;14.48;8.63;;;8.80;99.90;;;;;;5050096;28;20116;-82
2022/09/29 00:08:41;;;;;;;13.93;8.87;;;8.70;99.90;;;;;;5049923;28;20045;-82
2022/09/29 00:11:14;;;;;;;13.80;9.30;;;8.70;99.90;;;;;;5032541;28;20033;-82
2022/09/29 00:13:40;;;;;;;11.13;8.40;;;8.60;99.90;;;;;;5051157;28;20052;-82
2022/09/29 00:16:06;;;;;;;12.13;8.27;;;8.70;99.90;;;;;;5053803;28;20032;-82
2022/09/29 00:18:33;;;;;;;13.27;8.83;;;8.70;99.90;;;;;;5037235;28;20447;-81
2022/09/29 00:21:04;;;;;;;11.53;8.67;;;8.70;99.90;;;;;;5053788;28;20029;-82
2022/09/29 00:23:31;;;;;;;11.57;8.50;;;8.60;99.90;;;;;;5053885;28;20466;-82
2022/09/29 00:26:14;;;;;;;12.67;8.57;;;8.60;99.90;;;;;;5035580;28;20033;-82
2022/09/29 00:28:45;;;;;;;14.40;8.40;;;8.60;99.90;;;;;;5035730;28;20264;-82
2022/09/29 00:31:11;;;;;;;11.83;8.63;;;8.60;99.90;;;;;;5035828;28;20053;-82
2022/09/29 00:33:38;;;;;;;13.00;8.47;;;8.60;99.90;;;;;;5053491;28;20509;-82
2022/09/29 00:36:11;;;;;;;12.43;8.40;;;8.50;99.90;;;;;;5053295;28;20060;-82
2022/09/29 00:38:37;;;;;;;12.57;7.50;;;8.50;99.90;;;;;;5053234;28;20036;-82
2022/09/29 00:41:04;;;;;;;12.03;8.30;;;8.50;99.90;;;;;;5053280;28;20032;-82
2022/09/29 00:43:56;;;;;;;12.83;8.40;;;8.50;99.90;;;;;;5035436;28;20025;-82
2022/09/29 00:46:37;;;;;;;13.40;8.53;;;8.50;99.90;;;;;;5053387;28;20035;-82
2022/09/29 00:49:21;;;;;;;10.17;7.77;;;8.50;99.90;;;;;;5018675;28;20036;-82
2022/09/29 00:52:11;;;;;;;14.33;8.40;;;8.50;99.90;;;;;;5053151;28;20394;-82
2022/09/29 00:55:01;;;;;;;10.20;7.90;;;8.50;99.90;;;;;;5035175;28;20071;-82
2022/09/29 00:57:34;;;;;;;14.47;7.90;;;8.50;99.90;;;;;;5053077;28;20553;-81
2022/09/29 01:00:08;;;;;;;11.23;8.00;;;8.50;99.90;;;;;;5035148;28;20033;-82
2022/09/29 01:02:37;;;;;;;12.63;7.60;;;8.50;99.90;;;;;;5052884;28;20067;-82
2022/09/29 01:05:07;;;;;;;10.93;8.38;;;8.50;99.90;;;;;;5052852;28;20041;-82
2022/09/29 01:07:33;;;;;;;11.03;7.73;;;8.40;99.90;;;;;;5034947;28;20035;-82
2022/09/29 01:10:00;;;;;;;12.67;7.80;;;8.40;99.90;;;;;;5034842;28;20033;-82
2022/09/29 01:12:26;;;;;;;12.00;8.30;;;8.40;99.90;;;;;;5052697;28;20028;-82
2022/09/29 01:14:53;;;;;;;11.37;7.73;;;8.40;99.90;;;;;;5018174;28;20389;-82
2022/09/29 01:17:20;;;;;;;11.63;7.97;;;8.40;99.90;;;;;;5052879;28;20032;-82
2022/09/29 01:20:11;;;;;;;11.90;8.37;;;8.40;99.90;;;;;;5052389;28;20028;-82
2022/09/29 01:22:49;;;;;;;12.37;8.10;;;8.40;99.90;;;;;;5034965;28;20385;-82
2022/09/29 01:25:47;;;;;;;10.50;7.27;;;8.40;99.90;;;;;;5051734;28;20111;-82
2022/09/29 01:28:50;;;;;;;11.80;7.80;;;8.30;99.90;;;;;;5051850;28;20040;-82
2022/09/29 01:31:33;;;;;;;10.70;7.30;;;8.30;99.90;;;;;;5034583;28;20029;-82
2022/09/29 01:34:11;;;;;;;11.70;7.97;;;8.30;99.90;;;;;;5052263;28;20107;-82
2022/09/29 01:36:53;;;;;;;11.17;7.80;;;8.30;99.90;;;;;;5052338;28;20032;-82
2022/09/29 01:39:58;;;;;;;10.60;7.03;;;8.30;99.90;;;;;;5017664;28;20393;-82
2022/09/29 01:42:33;;;;;;;10.27;7.87;;;8.30;99.90;;;;;;5022632;28;20113;-82
2022/09/29 01:45:14;;;;;;;11.93;7.87;;;8.30;99.90;;;;;;5052451;28;20036;-82
2022/09/29 01:47:46;;;;;;;12.33;8.13;;;8.30;99.90;;;;;;5052013;28;20025;-82
2022/09/29 01:50:39;;;;;;;13.97;8.77;;;8.20;99.90;;;;;;5051800;28;20029;-82
2022/09/29 01:53:14;;;;;;;9.70;7.50;;;8.20;99.90;;;;;;5052091;28;20489;-82
2022/09/29 01:55:52;;;;;;;11.90;7.73;;;8.30;99.90;;;;;;5051719;28;20477;-82
2022/09/29 01:58:28;;;;;;;11.85;8.40;;;8.30;99.90;;;;;;5051886;28;20035;-82
2022/09/29 02:01:00;;;;;;;13.70;8.43;;;8.30;99.90;;;;;;5051685;28;20033;-82
2022/09/29 02:03:37;;;;;;;13.50;8.53;;;8.20;99.90;;;;;;5052095;28;20032;-82
2022/09/29 02:06:09;;;;;;;10.60;7.93;;;8.20;99.90;;;;;;5051494;28;20116;-82
2022/09/29 02:08:42;;;;;;;10.63;8.20;;;8.20;99.90;;;;;;5051618;28;20393;-82
2022/09/29 02:11:13;;;;;;;12.70;8.10;;;8.20;99.90;;;;;;5051780;28;20394;-82
2022/09/29 02:13:45;;;;;;;11.00;7.87;;;8.20;99.90;;;;;;5051621;28;20029;-82
2022/09/29 02:16:14;;;;;;;13.77;7.73;;;8.20;99.90;;;;;;5051458;28;20040;-82
2022/09/29 02:18:55;;;;;;;11.45;8.13;;;8.20;99.90;;;;;;5051219;28;20058;-82
2022/09/29 02:21:22;;;;;;;12.10;8.13;;;8.20;99.90;;;;;;5033636;28;20448;-82
2022/09/29 02:23:48;;;;;;;14.53;8.93;;;8.20;99.90;;;;;;5033665;28;20023;-82
2022/09/29 02:26:15;;;;;;;10.70;7.40;;;8.10;99.90;;;;;;5033201;28;20544;-82
2022/09/29 02:28:42;;;;;;;12.37;8.40;;;8.20;99.90;;;;;;5051189;28;20115;-82
2022/09/29 02:31:09;;;;;;;12.50;8.47;;;8.20;99.90;;;;;;5051235;28;20378;-82
2022/09/29 02:33:34;;;;;;;11.73;8.17;;;8.30;99.90;;;;;;5033443;28;20432;-82
2022/09/29 02:36:26;;;;;;;12.87;8.60;;;8.30;99.90;;;;;;5032885;28;20040;-82
2022/09/29 02:38:59;;;;;;;11.27;7.67;;;8.30;99.90;;;;;;5033315;28;20033;-82
2022/09/29 02:41:32;;;;;;;11.57;8.17;;;8.30;99.90;;;;;;5051184;28;20406;-82
2022/09/29 02:44:14;;;;;;;12.20;8.10;;;8.30;99.90;;;;;;5051132;28;20083;-82
2022/09/29 02:47:11;;;;;;;12.80;8.37;;;8.30;99.90;;;;;;5050865;28;20025;-82
2022/09/29 02:50:01;;;;;;;14.80;8.87;;;8.30;99.90;;;;;;5050778;28;20033;-81
2022/09/29 02:52:52;;;;;;;11.33;8.30;;;8.30;99.90;;;;;;5051171;28;20384;-82
2022/09/29 02:55:20;;;;;;;18.37;8.93;;;8.30;99.90;;;;;;5032829;28;20405;-82
2022/09/29 02:57:57;;;;;;;11.77;8.17;;;8.30;99.90;;;;;;5050736;28;20033;-82
2022/09/29 03:00:26;;;;;;;12.53;8.57;;;8.20;99.90;;;;;;5032694;28;20393;-82
2022/09/29 03:02:52;;;;;;;10.33;7.30;;;8.20;99.90;;;;;;5050752;28;20433;-82
2022/09/29 03:05:20;;;;;;;13.40;9.10;;;8.30;99.90;;;;;;5032925;28;20055;-82
2022/09/29 03:07:46;;;;;;;12.40;8.77;;;8.40;99.90;;;;;;5050611;28;20756;-82
2022/09/29 03:10:13;;;;;;;12.87;8.40;;;8.30;99.90;;;;;;5050443;28;20032;-82
2022/09/29 03:12:39;;;;;;;16.10;10.60;;;8.30;99.90;;;;;;5050768;28;20045;-82
2022/09/29 03:15:06;;;;;;;14.97;9.27;;;8.30;99.90;;;;;;5016583;28;20607;-82
2022/09/29 03:17:32;;;;;;;12.50;8.07;;;8.30;99.90;;;;;;5050318;28;20143;-82
2022/09/29 03:19:58;;;;;;;11.60;8.27;;;8.30;99.90;;;;;;5050351;28;20126;-82
2022/09/29 03:22:24;;;;;;;10.67;8.00;;;8.30;99.90;;;;;;5050559;28;20492;-82
2022/09/29 03:24:49;;;;;;;12.67;8.27;;;8.30;99.90;;;;;;5050504;28;20017;-82
2022/09/29 03:27:16;;;;;;;12.60;8.43;;;8.30;99.90;;;;;;5015963;28;20025;-82
2022/09/29 03:29:41;;;;;;;12.17;8.00;;;8.20;99.90;;;;;;5032368;28;20396;-82
2022/09/29 03:32:07;;;;;;;12.47;8.10;;;8.30;99.90;;;;;;5050527;28;20121;-82
2022/09/29 03:34:34;;;;;;;14.63;8.20;;;8.40;99.90;;;;;;5067288;22;20044;-84
2022/09/29 03:37:00;;;;;;;11.90;7.63;;;8.40;99.90;;;;;;5031805;28;20420;-83
2022/09/29 03:39:27;;;;;;;11.03;7.90;;;8.50;99.90;;;;;;5049862;28;20052;-83
2022/09/29 03:41:54;;;;;;;11.03;7.70;;;8.60;99.90;;;;;;5050459;28;20029;-84
2022/09/29 03:44:19;;;;;;;9.47;7.20;;;8.60;99.90;;;;;;5050234;28;20029;-84
2022/09/29 03:46:46;;;;;;;9.63;7.30;;;8.60;99.90;;;;;;5032322;28;20072;-85
2022/09/29 03:49:13;;;;;;;11.77;7.77;;;8.50;99.90;;;;;;5034005;28;20107;-84
2022/09/29 03:51:40;;;;;;;11.90;8.53;;;8.50;99.90;;;;;;5036369;28;20025;-84
2022/09/29 03:54:06;;;;;;;12.67;7.97;;;8.40;99.90;;;;;;5036437;28;20056;-84
2022/09/29 03:56:32;;;;;;;11.60;7.73;;;8.40;99.90;;;;;;5036111;28;20090;-84
2022/09/29 03:58:58;;;;;;;10.50;7.67;;;8.30;99.90;;;;;;5054197;28;20029;-84
2022/09/29 04:01:24;;;;;;;12.90;8.93;;;8.30;99.90;;;;;;5036182;28;20601;-84
2022/09/29 04:03:50;;;;;;;9.73;7.53;;;8.30;99.90;;;;;;5054068;28;20021;-84
2022/09/29 04:06:15;;;;;;;13.70;8.20;;;8.30;99.90;;;;;;5036028;28;20516;-84
2022/09/29 04:08:41;;;;;;;12.33;8.13;;;8.30;99.90;;;;;;5053848;28;20052;-84
2022/09/29 04:11:07;;;;;;;12.33;8.30;;;8.20;99.90;;;;;;5053912;28;20025;-84
2022/09/29 04:13:33;;;;;;;11.93;8.40;;;8.20;99.90;;;;;;5054013;28;20040;-84
2022/09/29 04:16:01;;;;;;;13.30;7.47;;;8.20;99.90;;;;;;5035840;28;20452;-84
2022/09/29 04:18:27;;;;;;;12.03;8.20;;;8.20;99.90;;;;;;5035810;28;20040;-84
2022/09/29 04:20:54;;;;;;;11.90;7.97;;;8.20;99.90;;;;;;5053662;28;20401;-84
2022/09/29 04:23:20;;;;;;;10.90;7.97;;;8.30;99.90;;;;;;5035870;28;20112;-83
2022/09/29 04:25:45;;;;;;;11.47;7.43;;;8.40;99.90;;;;;;5053566;28;20033;-82
2022/09/29 04:28:12;;;;;;;11.63;7.77;;;8.40;99.90;;;;;;5053692;28;20381;-82
2022/09/29 04:30:38;;;;;;;12.27;7.73;;;8.40;99.90;;;;;;5035572;28;20075;-83
2022/09/29 04:33:04;;;;;;;9.83;7.60;;;8.50;99.90;;;;;;5035598;28;20122;-83
2022/09/29 04:35:29;;;;;;;11.00;7.87;;;8.40;99.90;;;;;;5053537;28;20171;-82
2022/09/29 04:37:56;;;;;;;12.77;7.93;;;8.40;99.90;;;;;;5052103;28;20033;-83
2022/09/29 04:40:23;;;;;;;11.30;8.10;;;8.50;99.90;;;;;;5053169;28;20021;-83
2022/09/29 04:42:48;;;;;;;10.97;7.93;;;8.50;99.90;;;;;;5053496;28;20029;-83
2022/09/29 04:45:14;;;;;;;10.60;7.57;;;8.40;99.90;;;;;;5035433;28;20037;-82
2022/09/29 04:47:40;;;;;;;11.80;7.67;;;8.40;99.90;;;;;;5035092;28;20025;-83
2022/09/29 04:50:06;;;;;;;13.53;8.10;;;8.40;99.90;;;;;;5053211;28;20448;-82
2022/09/29 04:52:34;;;;;;;10.53;7.77;;;8.40;99.90;;;;;;5053274;28;20299;-82
2022/09/29 04:55:00;;;;;;;9.67;7.53;;;8.50;99.90;;;;;;5053099;28;20416;-83
2022/09/29 04:57:25;;;;;;;10.30;7.47;;;8.50;99.90;;;;;;5034955;28;20121;-82
2022/09/29 04:59:51;;;;;;;12.03;7.63;;;8.60;99.90;;;;;;5052070;28;20025;-83
2022/09/29 05:02:20;;;;;;;12.47;7.93;;;8.50;99.90;;;;;;5034596;28;20032;-83
2022/09/29 05:04:46;;;;;;;9.52;7.22;;;8.50;99.90;;;;;;5052991;28;20076;-83
2022/09/29 05:07:12;;;;;;;13.27;8.03;;;8.50;99.90;;;;;;5034915;28;20021;-83
2022/09/29 05:09:39;;;;;;;12.47;7.97;;;8.50;99.90;;;;;;5052955;28;20025;-82
2022/09/29 05:12:05;;;;;;;12.80;7.87;;;8.50;99.90;;;;;;5052966;28;20044;-83
2022/09/29 05:14:31;;;;;;;11.47;7.43;;;8.40;99.90;;;;;;5052652;28;20032;-83
2022/09/29 05:16:57;;;;;;;9.93;6.93;;;8.50;99.90;;;;;;5052504;28;20029;-83
2022/09/29 05:19:23;;;;;;;11.27;7.33;;;8.50;99.90;;;;;;5034569;28;20033;-83
2022/09/29 05:21:49;;;;;;;10.13;7.83;;;8.50;99.90;;;;;;5052661;28;20381;-83
2022/09/29 05:24:14;;;;;;;12.63;7.67;;;8.40;99.90;;;;;;5018106;28;20032;-83
2022/09/29 05:26:40;;;;;;;14.60;8.10;;;8.30;99.90;;;;;;5052810;28;20163;-83
2022/09/29 05:29:06;;;;;;;13.33;7.30;;;8.30;99.90;;;;;;5052488;28;20117;-83
2022/09/29 05:31:32;;;;;;;15.83;8.57;;;8.20;99.90;;;;;;5052642;28;20036;-83
2022/09/29 05:33:57;;;;;;;13.07;7.80;;;8.20;99.90;;;;;;5052935;28;20033;-83
2022/09/29 05:36:24;;;;;;;12.27;8.20;;;8.20;99.90;;;;;;5052051;28;20405;-83
2022/09/29 05:38:50;;;;;;;11.87;7.73;;;8.30;99.90;;;;;;5052087;28;20027;-83
2022/09/29 05:41:17;;;;;;;11.53;7.80;;;8.30;99.90;;;;;;5052342;28;20021;-83
2022/09/29 05:43:43;;;;;;;14.87;8.10;;;8.30;99.90;;;;;;5052137;28;20489;-83
2022/09/29 05:46:09;;;;;;;11.90;7.93;;;8.30;99.90;;;;;;5051801;28;20025;-83
2022/09/29 05:48:36;;;;;;;12.07;8.17;;;8.30;99.90;;;;;;5034054;28;20413;-83
2022/09/29 05:51:10;;;;;;;14.53;8.37;;;8.20;99.90;;;;;;5052405;28;20051;-83
2022/09/29 05:53:36;;;;;;;14.63;8.57;;;8.20;99.90;;;;;;5052085;28;20024;-83
2022/09/29 05:56:06;;;;;;;14.43;8.40;;;8.20;99.90;;;;;;5051786;28;20059;-83
2022/09/29 05:58:32;;;;;;;14.70;7.97;;;8.10;99.90;;;;;;5050572;28;20029;-83
2022/09/29 06:00:58;;;;;;;10.97;8.10;;;8.10;99.90;;;;;;5035186;28;20385;-83
2022/09/29 06:03:24;;;;;;;11.90;7.93;;;8.10;99.90;;;;;;5051855;28;20108;-83
2022/09/29 06:05:50;;;;;;;13.07;7.90;;;8.10;99.90;;;;;;5051634;28;20057;-83
2022/09/29 06:08:16;;;;;;;10.90;7.37;;;8.10;99.90;;;;;;5033858;28;20033;-83
2022/09/29 06:10:41;;;;;;;14.37;8.13;;;8.10;99.90;;;;;;5051481;28;20040;-83
2022/09/29 06:13:07;;;;;;;11.00;7.73;;;8.10;99.90;;;;;;5051297;28;20033;-82
2022/09/29 06:15:33;;;;;;;11.90;7.67;;;8.20;99.90;;;;;;5051689;28;20075;-83
2022/09/29 06:18:02;;;;;;;10.70;7.83;;;8.10;99.90;;;;;;5033867;28;20043;-83
2022/09/29 06:20:28;;;;;;;14.77;8.05;;;8.20;99.90;;;;;;5051067;28;20051;-83
2022/09/29 06:22:55;;;;;;;12.33;8.33;;;8.30;99.90;;;;;;5051517;28;20095;-83
2022/09/29 06:25:21;;;;;;;11.60;8.17;;;8.30;99.90;;;;;;5033596;28;20469;-83
2022/09/29 06:27:47;;;;;;;13.27;8.50;;;8.40;99.90;;;;;;5033206;28;20447;-83
2022/09/29 06:30:13;;;;;;;12.57;8.00;;;8.30;99.90;;;;;;5051058;28;20037;-83
2022/09/29 06:32:39;;;;;;;11.53;8.23;;;8.30;99.90;;;;;;5051388;28;20082;-83
2022/09/29 06:37:52;;;;;;;12.07;8.43;;;8.30;99.90;;;;;;5050940;28;20377;-83
2022/09/29 06:40:22;;;;;;;10.63;8.00;;;8.40;99.90;;;;;;5033062;28;20160;-83
2022/09/29 06:42:48;;;;;;;11.80;8.17;;;8.30;99.90;;;;;;5033311;28;20041;-83
2022/09/29 06:45:14;;;;;;;11.97;8.27;;;8.30;99.90;;;;;;5051057;28;20481;-83
2022/09/29 06:47:40;;;;;;;10.90;7.87;;;8.30;99.90;;;;;;5050844;28;20033;-83
2022/09/29 06:50:06;;;;;;;11.57;8.47;;;8.40;99.90;;;;;;5051014;28;20029;-82
2022/09/29 06:52:32;;;;;;;13.60;8.53;;;8.40;99.90;;;;;;5050881;28;20061;-83
2022/09/29 06:54:57;;;;;;;11.97;8.17;;;8.50;99.90;;;;;;5050788;28;20053;-82
2022/09/29 06:57:23;;;;;;;13.33;8.27;;;8.50;99.90;;;;;;5050716;28;20028;-83
2022/09/29 06:59:49;;;;;;;13.77;8.03;;;8.50;99.90;;;;;;5050552;28;20028;-83
2022/09/29 07:02:15;;;;;;;12.37;8.60;;;8.60;99.90;;;;;;5033103;28;20021;-83
2022/09/29 07:04:41;;;;;;;13.23;8.83;;;8.60;99.90;;;;;;5050782;28;20025;-83
2022/09/29 07:07:07;;;;;;;11.87;8.93;;;8.60;99.90;;;;;;5050641;28;20108;-83
2022/09/29 07:09:33;;;;;;;11.57;8.40;;;8.70;99.90;;;;;;5050508;28;20474;-83
2022/09/29 07:11:58;;;;;;;11.63;8.70;;;8.70;99.90;;;;;;5016428;28;20120;-83
2022/09/29 07:14:24;;;;;;;11.73;9.00;;;8.70;99.90;;;;;;5032857;28;20477;-83
2022/09/29 07:16:51;;;;;;;14.83;9.97;;;8.70;99.90;;;;;;5050480;28;20127;-83
2022/09/29 07:19:18;;;;;;;17.80;12.67;;;8.80;99.90;;;;;;5050453;28;20025;-83
2022/09/29 07:21:45;;;;;;;27.10;18.23;;;8.80;99.90;;;;;;5032658;28;20032;-83
2022/09/29 07:24:11;;;;;;;35.47;21.57;;;8.90;99.90;;;;;;5032213;28;20029;-83
2022/09/29 07:26:37;;;;;;;34.70;21.77;;;8.90;99.90;;;;;;5050414;28;20448;-83
2022/09/29 07:29:03;;;;;;;30.80;19.23;;;8.90;99.90;;;;;;5050642;28;20033;-83
2022/09/29 07:31:29;;;;;;;26.97;16.73;;;9.00;99.90;;;;;;5032569;28;20119;-83
2022/09/29 07:33:55;;;;;;;22.03;14.33;;;8.90;99.90;;;;;;5050660;28;20064;-83
2022/09/29 07:36:21;;;;;;;20.97;14.77;;;9.00;99.90;;;;;;5032503;28;20033;-83
2022/09/29 07:38:49;;;;;;;19.13;13.20;;;9.10;99.90;;;;;;5050446;28;20410;-83
2022/09/29 07:41:17;;;;;;;16.13;12.03;;;9.10;99.90;;;;;;5016131;28;20064;-83
2022/09/29 07:43:43;;;;;;;14.17;10.47;;;9.20;99.90;;;;;;5050528;28;20029;-83
2022/09/29 07:46:09;;;;;;;15.30;10.30;;;9.20;99.90;;;;;;5050152;28;20040;-83
2022/09/29 07:48:36;;;;;;;15.17;9.87;;;9.30;99.90;;;;;;5032444;28;20048;-83
2022/09/29 07:51:08;;;;;;;14.33;10.13;;;9.30;99.90;;;;;;5032280;28;20132;-83
2022/09/29 07:53:35;;;;;;;13.03;9.17;;;9.40;99.90;;;;;;5049045;28;20045;-83
2022/09/29 07:56:21;;;;;;;13.63;8.80;;;9.40;99.90;;;;;;5050137;28;20032;-83
2022/09/29 07:58:49;;;;;;;14.10;9.30;;;9.50;99.90;;;;;;5031904;28;20048;-83
2022/09/29 08:01:16;;;;;;;16.57;9.77;;;9.60;99.90;;;;;;5032422;28;20039;-83
2022/09/29 08:03:47;;;;;;;18.67;10.03;;;9.60;99.90;;;;;;5015809;28;20029;-82
2022/09/29 08:06:14;;;;;;;15.17;9.37;;;9.60;99.90;;;;;;5032047;28;20151;-82
2022/09/29 08:08:41;;;;;;;11.90;9.03;;;9.70;99.90;;;;;;5049918;28;20470;-83
2022/09/29 08:11:12;;;;;;;14.53;9.07;;;9.70;99.90;;;;;;5050216;28;20039;-83
2022/09/29 08:13:40;;;;;;;17.13;9.13;;;9.70;99.90;;;;;;5050139;28;20166;-83
2022/09/29 08:16:09;;;;;;;13.50;9.13;;;9.70;99.90;;;;;;5049849;28;20032;-83
2022/09/29 08:18:36;;;;;;;14.93;9.32;;;9.80;99.90;;;;;;5049747;28;20075;-83
2022/09/29 08:21:03;;;;;;;14.40;10.17;;;9.80;99.90;;;;;;5032346;28;20033;-83
2022/09/29 08:23:30;;;;;;;12.67;9.40;;;9.80;99.90;;;;;;5050143;28;20432;-82
2022/09/29 08:26:07;;;;;;;17.23;9.03;;;9.80;99.90;;;;;;5031959;28;20051;-83
2022/09/29 08:28:35;;;;;;;16.20;9.90;;;9.80;99.90;;;;;;5049771;28;20052;-83
2022/09/29 08:31:06;;;;;;;13.43;9.37;;;9.90;99.90;;;;;;5049965;28;20035;-83
2022/09/29 08:33:32;;;;;;;15.40;10.23;;;9.90;99.90;;;;;;5049899;28;20032;-83
2022/09/29 08:35:58;;;;;;;15.50;9.60;;;9.90;99.90;;;;;;5052254;28;20037;-82
2022/09/29 08:38:26;;;;;;;13.60;9.00;;;9.90;99.90;;;;;;5053528;28;20128;-83
2022/09/29 08:40:54;;;;;;;12.97;8.70;;;10.00;99.90;;;;;;5053240;28;20601;-83
2022/09/29 08:43:30;;;;;;;15.50;9.17;;;10.00;99.90;;;;;;5053461;28;20178;-83
2022/09/29 08:46:15;;;;;;;11.90;8.80;;;10.00;99.90;;;;;;5018742;28;20053;-83
2022/09/29 08:48:43;;;;;;;12.93;8.47;;;10.10;99.90;;;;;;5053095;28;20029;-83
2022/09/29 08:51:38;;;;;;;16.13;9.90;;;10.10;99.90;;;;;;5035596;28;20305;-83
2022/09/29 08:54:32;;;;;;;16.73;10.87;;;10.20;99.90;;;;;;5047413;28;20131;-83
2022/09/29 08:56:59;;;;;;;14.20;9.57;;;10.10;99.90;;;;;;5035075;28;20074;-83
2022/09/29 08:59:28;;;;;;;12.53;8.77;;;10.10;99.90;;;;;;5052953;28;20495;-83
2022/09/29 09:02:02;;;;;;;18.42;10.90;;;10.20;99.90;;;;;;5052956;28;20028;-83
2022/09/29 09:04:40;;;;;;;13.20;9.10;;;10.20;99.90;;;;;;5035011;28;20033;-83
2022/09/29 09:07:18;;;;;;;15.33;9.73;;;10.20;99.90;;;;;;5052838;28;20078;-83
2022/09/29 09:10:18;;;;;;;13.73;8.97;;;10.20;99.90;;;;;;5052693;28;20297;-83
2022/09/29 09:13:04;;;;;;;11.57;8.70;;;10.20;99.90;;;;;;5034938;28;20041;-83
2022/09/29 09:15:32;;;;;;;13.13;9.33;;;10.30;99.90;;;;;;5034856;28;20037;-83
2022/09/29 09:18:21;;;;;;;12.77;8.48;;;10.40;99.90;;;;;;5052668;28;20040;-83
2022/09/29 09:21:03;;;;;;;11.50;8.48;;;10.40;99.90;;;;;;5052424;28;20029;-83
2022/09/29 09:23:43;;;;;;;13.93;7.97;;;10.40;99.90;;;;;;5053013;28;20388;-83
2022/09/29 09:26:12;;;;;;;13.00;8.83;;;10.50;99.90;;;;;;5052341;28;20048;-83
2022/09/29 09:28:47;;;;;;;14.23;9.65;;;10.50;99.90;;;;;;5052401;28;20044;-83
2022/09/29 09:31:25;;;;;;;12.53;9.03;;;10.50;99.90;;;;;;5052317;28;20112;-83
2022/09/29 09:33:57;;;;;;;14.20;9.00;;;10.50;99.90;;;;;;5018118;28;20404;-83
2022/09/29 09:36:28;;;;;;;11.77;8.60;;;10.60;99.90;;;;;;5034410;28;20120;-83
2022/09/29 09:39:00;;;;;;;15.20;9.30;;;10.60;99.90;;;;;;5052133;28;20048;-83
2022/09/29 09:41:28;;;;;;;13.50;9.53;;;10.70;99.90;;;;;;5034467;28;20477;-83
2022/09/29 09:44:04;;;;;;;16.87;10.97;;;10.70;99.90;;;;;;5052390;28;20078;-83
2022/09/29 09:46:52;;;;;;;14.53;10.00;;;10.70;99.90;;;;;;5051393;28;20087;-83
2022/09/29 09:49:34;;;;;;;13.23;9.60;;;10.80;99.90;;;;;;5051996;28;20038;-83
2022/09/29 09:52:29;;;;;;;11.53;9.00;;;10.80;99.90;;;;;;5052024;28;20025;-82
2022/09/29 09:55:03;;;;;;;13.57;9.80;;;10.80;99.90;;;;;;5038361;28;20175;-83
2022/09/29 09:57:51;;;;;;;12.20;8.83;;;10.90;99.90;;;;;;5034164;28;20025;-83
2022/09/29 10:00:24;;;;;;;13.60;9.70;;;10.90;99.90;;;;;;5051677;28;20033;-83
2022/09/29 10:02:54;;;;;;;12.60;8.43;;;10.90;99.90;;;;;;5051993;28;20021;-83
2022/09/29 10:05:33;;;;;;;12.53;7.97;;;11.00;99.90;;;;;;5051906;28;20569;-83
2022/09/29 10:07:59;;;;;;;11.83;7.60;;;11.00;99.90;;;;;;5017219;28;20060;-83
2022/09/29 10:10:28;;;;;;;13.20;7.90;;;11.00;99.90;;;;;;5051529;28;20401;-83
2022/09/29 10:13:13;;;;;;;12.57;8.05;;;11.00;99.90;;;;;;5051678;28;20040;-83
2022/09/29 10:16:04;;;;;;;9.70;7.30;;;11.00;99.90;;;;;;5033913;28;20119;-82
2022/09/29 10:18:41;;;;;;;10.87;7.20;;;11.00;99.90;;;;;;5033672;28;20060;-82
2022/09/29 10:21:43;;;;;;;11.23;7.50;;;11.10;99.90;;;;;;5051859;28;20135;-83
2022/09/29 10:24:29;;;;;;;11.77;7.20;;;11.10;99.90;;;;;;4989655;28;20026;-82
2022/09/29 10:26:58;;;;;;;12.83;7.83;;;11.10;99.90;;;;;;5031040;28;20115;-82
2022/09/29 10:29:38;;;;;;;11.68;8.00;;;11.20;99.90;;;;;;5033339;28;20068;-83
2022/09/29 10:32:06;;;;;;;11.87;6.80;;;11.20;99.90;;;;;;5051511;28;20049;-83
2022/09/29 10:34:35;;;;;;;11.13;7.13;;;11.20;99.90;;;;;;5051283;28;20056;-83
2022/09/29 10:37:02;;;;;;;;;;;11.30;99.90;;;;;;5051448;28;20048;-83
2022/09/29 10:39:49;;;;;;;13.40;8.03;;;11.30;99.90;;;;;;5050962;28;19912;-82
2022/09/29 10:42:21;;;;;;;10.93;6.87;;;11.30;99.90;;;;;;5051156;28;20100;-83
2022/09/29 10:45:09;;;;;;;11.20;7.57;;;11.40;99.90;;;;;;5051153;28;20029;-82
2022/09/29 10:47:36;;;;;;;12.60;8.47;;;11.40;99.90;;;;;;5050957;28;20017;-83
2022/09/29 10:50:26;;;;;;;14.30;9.27;;;11.40;99.90;;;;;;5033007;28;20036;-83
2022/09/29 10:53:03;;;;;;;17.63;10.23;;;11.50;99.90;;;;;;5050953;28;20039;-83
2022/09/29 10:55:32;;;;;;;17.63;10.13;;;11.60;99.90;;;;;;5051136;28;20120;-83
2022/09/29 10:58:01;;;;;;;16.92;10.10;;;11.60;99.90;;;;;;5049985;28;20029;-83
2022/09/29 11:00:33;;;;;;;18.53;10.70;;;11.60;99.90;;;;;;5050481;28;20102;-83
2022/09/29 11:03:22;;;;;;;17.40;9.67;;;11.60;99.90;;;;;;5033090;28;20170;-83
2022/09/29 11:05:54;;;;;;;15.00;8.80;;;11.60;99.90;;;;;;5050616;28;20033;-82
2022/09/29 11:08:24;;;;;;;13.57;8.80;;;11.60;99.90;;;;;;5050863;28;20397;-83
2022/09/29 11:11:06;;;;;;;14.67;9.20;;;11.50;99.90;;;;;;5032666;28;20408;-82
2022/09/29 11:13:38;;;;;;;16.70;9.13;;;11.50;99.90;;;;;;5050890;28;20033;-82
2022/09/29 11:16:16;;;;;;;17.90;10.53;;;11.50;99.90;;;;;;5050509;28;20366;-82
2022/09/29 11:18:46;;;;;;;18.27;10.00;;;11.50;99.90;;;;;;5050455;28;20025;-83
2022/09/29 11:21:21;;;;;;;19.23;10.60;;;11.50;99.90;;;;;;5032739;28;20413;-82
2022/09/29 11:24:28;;;;;;;18.50;10.63;;;11.50;99.90;;;;;;5032570;28;20043;-82
2022/09/29 11:26:54;;;;;;;15.43;9.27;;;11.50;99.90;;;;;;5042000;28;20048;-82
2022/09/29 11:29:38;;;;;;;15.30;8.37;;;11.50;99.90;;;;;;5050252;28;20120;-83
2022/09/29 11:32:19;;;;;;;12.53;6.87;;;11.50;99.90;;;;;;5050679;28;20037;-82
2022/09/29 11:35:04;;;;;;;8.83;5.30;;;11.50;99.90;;;;;;5016222;28;20032;-83
2022/09/29 11:37:54;;;;;;;12.50;6.97;;;11.50;99.90;;;;;;5050318;28;20398;-83
2022/09/29 11:41:04;;;;;;;11.47;5.77;;;11.50;99.90;;;;;;5050509;28;20374;-82
2022/09/29 11:43:44;;;;;;;15.53;8.43;;;11.60;99.90;;;;;;4999597;28;20060;-82
2022/09/29 11:46:34;;;;;;;10.90;6.20;;;11.60;99.90;;;;;;5050087;28;20034;-82
2022/09/29 11:49:21;;;;;;;10.57;5.97;;;11.60;99.90;;;;;;5050312;28;20473;-82
2022/09/29 11:52:02;;;;;;;12.07;5.90;;;11.60;99.90;;;;;;5050087;28;20039;-83
2022/09/29 11:54:47;;;;;;;12.17;6.93;;;11.60;99.90;;;;;;5050275;28;20216;-82
2022/09/29 11:57:41;;;;;;;12.80;7.17;;;11.60;99.90;;;;;;5050356;28;20094;-82
2022/09/29 12:00:11;;;;;;;10.60;6.40;;;11.60;99.90;;;;;;5049954;28;20464;-82
2022/09/29 12:02:46;;;;;;;8.93;5.70;;;11.60;99.90;;;;;;5032490;28;20025;-82
2022/09/29 12:05:41;;;;;;;8.83;5.90;;;11.60;99.90;;;;;;5032157;28;20025;-82
2022/09/29 12:08:52;;;;;;;11.03;5.70;;;11.60;99.90;;;;;;5050019;28;20477;-82
2022/09/29 12:11:39;;;;;;;11.05;6.15;;;11.60;99.90;;;;;;5053429;28;20374;-83
2022/09/29 12:14:05;;;;;;;13.38;5.90;;;11.60;99.90;;;;;;5053897;28;20091;-83
2022/09/29 12:16:40;;;;;;;9.57;5.57;;;11.60;99.90;;;;;;5053883;28;20467;-83
2022/09/29 12:19:12;;;;;;;9.57;5.28;;;11.60;99.90;;;;;;5053530;28;20396;-83
2022/09/29 12:21:50;;;;;;;11.43;5.30;;;11.50;99.90;;;;;;5035757;28;20040;-83
2022/09/29 12:24:40;;;;;;;10.13;4.77;;;11.60;99.90;;;;;;5053713;28;20029;-82
2022/09/29 12:27:25;;;;;;;10.60;5.47;;;11.70;99.90;;;;;;5053635;28;20033;-82
2022/09/29 12:30:29;;;;;;;10.10;6.80;;;11.70;99.90;;;;;;5053434;28;20051;-82
2022/09/29 12:33:24;;;;;;;9.57;5.57;;;11.80;99.90;;;;;;5053149;28;20076;-83
2022/09/29 12:36:44;;;;;;;7.72;4.50;;;11.90;99.90;;;;;;5053139;28;20055;-83
2022/09/29 12:39:24;;;;;;;8.07;4.25;;;11.90;99.90;;;;;;4991343;28;20491;-82
2022/09/29 12:42:21;;;;;;;8.65;4.40;;;11.90;99.90;;;;;;5053484;28;20035;-83
2022/09/29 12:44:56;;;;;;;7.87;4.03;;;11.90;99.90;;;;;;5053219;28;20064;-83
2022/09/29 12:47:28;;;;;;;8.18;3.63;;;11.90;99.90;;;;;;5053459;28;20053;-82
2022/09/29 12:50:09;;;;;;;5.53;3.40;;;11.90;99.90;;;;;;5053069;28;20029;-83
2022/09/29 12:52:48;;;;;;;6.45;3.33;;;11.90;99.90;;;;;;5035354;28;20098;-83
2022/09/29 12:55:24;;;;;;;7.30;3.22;;;11.90;99.90;;;;;;5053118;28;20028;-83
2022/09/29 12:57:53;;;;;;;6.50;3.25;;;11.80;99.90;;;;;;5053021;28;20068;-82
2022/09/29 13:00:19;;;;;;;6.18;2.90;;;11.80;99.90;;;;;;5052869;28;20394;-83
2022/09/29 13:03:03;;;;;;;6.30;3.20;;;11.80;99.90;;;;;;5053063;28;20032;-83
2022/09/29 13:05:48;;;;;;;7.75;3.90;;;11.80;99.90;;;;;;5052803;28;20462;-83
2022/09/29 13:08:29;;;;;;;6.00;2.60;;;11.90;99.90;;;;;;5052967;28;20128;-83
2022/09/29 13:11:05;;;;;;;6.80;3.08;;;11.90;99.90;;;;;;5052866;28;20029;-83
2022/09/29 13:13:54;;;;;;;5.47;3.08;;;11.90;99.90;;;;;;5052800;28;20067;-83
2022/09/29 13:16:20;;;;;;;5.40;3.22;;;11.90;99.90;;;;;;5034674;28;20043;-83